createdAt,value
2022-08-18T00:01:50.522Z,99812.28
2022-08-18T00:04:55.348Z,99815.91
2022-08-18T00:08:00.931Z,99807.66
2022-08-18T00:11:05.895Z,99794.03
2022-08-18T00:14:09.710Z,99817.19
2022-08-18T00:17:13.014Z,99825.56
2022-08-18T00:20:18.580Z,99836.41
2022-08-18T00:23:21.625Z,99838.16
2022-08-18T00:26:25.774Z,99843.34
2022-08-18T00:29:28.642Z,99854.22
2022-08-18T00:32:34.109Z,99862.47
2022-08-18T00:35:38.838Z,99860.16
2022-08-18T00:38:41.832Z,99850.75
2022-08-18T00:41:45.914Z,99843.97
2022-08-18T00:44:49.629Z,99850.59
2022-08-18T00:47:54.006Z,99861.72
2022-08-18T00:51:00.229Z,99868.97
2022-08-18T00:54:07.193Z,99866.09
2022-08-18T00:57:12.381Z,99865.47
2022-08-18T01:00:18.846Z,99854.25
2022-08-18T01:03:25.088Z,99859.09
2022-08-18T01:06:33.403Z,99874.41
2022-08-18T01:09:36.869Z,99863.94
2022-08-18T01:12:45.353Z,99872.59
2022-08-18T01:15:49.336Z,99874.06
2022-08-18T01:19:10.135Z,99862.34
2022-08-18T01:22:20.231Z,99870.78
2022-08-18T01:25:42.030Z,99867.56
2022-08-18T01:28:46.735Z,99870.31
2022-08-18T01:31:55.748Z,99868.56
2022-08-18T01:34:58.994Z,99876.91
2022-08-18T01:38:01.731Z,99870.50
2022-08-18T01:41:27.239Z,99873.41
2022-08-18T01:44:30.631Z,99876.94
2022-08-18T01:47:47.312Z,99877.63
2022-08-18T01:50:54.457Z,99862.72
2022-08-18T01:53:58.364Z,99879.56
2022-08-18T01:57:03.461Z,99873.47
2022-08-18T02:00:07.577Z,99875.47
2022-08-18T02:03:16.237Z,99878.63
2022-08-18T02:06:32.348Z,99874.75
2022-08-18T02:09:37.908Z,99874.75
2022-08-18T02:12:43.069Z,99877.56
2022-08-18T02:15:45.894Z,99879.97
2022-08-18T02:18:49.076Z,99873.06
2022-08-18T02:21:52.722Z,99861.84
2022-08-18T02:24:58.709Z,99866.84
2022-08-18T02:28:02.754Z,99866.72
2022-08-18T02:31:07.174Z,99859.16
2022-08-18T02:34:13.980Z,99855.84
2022-08-18T02:37:17.105Z,99849.75
2022-08-18T02:40:20.132Z,99852.09
2022-08-18T02:43:24.523Z,99838.63
2022-08-18T02:46:29.699Z,99838.63
2022-08-18T02:49:33.160Z,99834.63
2022-08-18T02:52:36.511Z,99835.34
2022-08-18T02:55:39.949Z,99834.47
2022-08-18T02:58:43.941Z,99829.41
2022-08-18T03:01:48.772Z,99822.34
2022-08-18T03:04:53.001Z,99819.63
2022-08-18T03:07:55.655Z,99828.06
2022-08-18T03:10:58.382Z,99827.22
2022-08-18T03:14:02.449Z,99823.50
2022-08-18T03:17:08.306Z,99833.66
2022-08-18T03:20:12.465Z,99826.47
2022-08-18T03:23:15.136Z,99816.63
2022-08-18T03:26:19.337Z,99827.97
2022-08-18T03:29:29.521Z,99826.34
2022-08-18T03:32:34.531Z,99829.22
2022-08-18T03:35:38.225Z,99828.97
2022-08-18T03:38:43.204Z,99819.59
2022-08-18T03:41:58.970Z,99811.63
2022-08-18T03:45:13.371Z,99809.16
2022-08-18T03:48:20.595Z,99815.75
2022-08-18T03:51:25.746Z,99812.88
2022-08-18T03:54:29.135Z,99803.28
2022-08-18T03:57:34.442Z,99807.78
2022-08-18T04:00:43.258Z,99792.28
2022-08-18T04:03:47.945Z,99791.72
2022-08-18T04:06:55.471Z,99800.84
2022-08-18T04:09:58.779Z,99794.06
2022-08-18T04:13:01.418Z,99774.66
2022-08-18T04:16:07.109Z,99794.13
2022-08-18T04:19:13.437Z,99797.50
2022-08-18T04:22:18.516Z,99796.34
2022-08-18T04:25:21.811Z,99806.19
2022-08-18T04:28:24.957Z,99815.03
2022-08-18T04:31:31.451Z,99814.03
2022-08-18T04:34:35.256Z,99803.41
2022-08-18T04:37:39.783Z,99813.22
2022-08-18T04:40:44.657Z,99816.72
2022-08-18T04:43:48.076Z,99821.34
2022-08-18T04:46:54.725Z,99824.09
2022-08-18T04:49:57.392Z,99825.94
2022-08-18T04:53:17.520Z,99830.00
2022-08-18T04:56:26.465Z,99828.97
2022-08-18T04:59:31.894Z,99839.69
2022-08-18T05:02:42.240Z,99838.97
2022-08-18T05:05:44.948Z,99843.41
2022-08-18T05:08:48.162Z,99833.31
2022-08-18T05:11:51.490Z,99845.16
2022-08-18T05:14:57.819Z,99849.94
2022-08-18T05:18:02.144Z,99860.28
2022-08-18T05:21:05.120Z,99863.16
2022-08-18T05:24:11.856Z,99860.91
2022-08-18T05:27:15.152Z,99856.63
2022-08-18T05:30:17.871Z,99852.88
2022-08-18T05:33:22.030Z,99854.75
2022-08-18T05:36:52.512Z,99850.28
2022-08-18T05:40:00.183Z,99863.69
2022-08-18T05:43:04.968Z,99866.06
2022-08-18T05:46:09.085Z,99861.31
2022-08-18T05:49:15.460Z,99855.34
2022-08-18T05:52:22.915Z,99851.72
2022-08-18T05:55:48.326Z,99844.09
2022-08-18T05:58:55.376Z,99850.19
2022-08-18T06:02:03.916Z,99837.31
2022-08-18T06:05:12.765Z,99839.69
2022-08-18T06:08:18.341Z,99838.00
2022-08-18T06:11:22.335Z,99838.44
2022-08-18T06:14:26.280Z,99840.19
2022-08-18T06:17:52.351Z,99844.94
2022-08-18T06:21:26.340Z,99844.06
2022-08-18T06:24:38.161Z,99844.69
2022-08-18T06:27:55.505Z,99840.06
2022-08-18T06:31:06.324Z,99836.31
2022-08-18T06:34:19.568Z,99844.69
2022-08-18T06:37:31.862Z,99844.81
2022-08-18T06:40:34.599Z,99843.50
2022-08-18T06:43:39.968Z,99846.44
2022-08-18T06:46:47.086Z,99848.44
2022-08-18T06:49:55.213Z,99858.13
2022-08-18T06:53:02.030Z,99864.66
2022-08-18T06:56:26.450Z,99871.59
2022-08-18T06:59:32.228Z,99873.41
2022-08-18T07:02:52.307Z,99860.09
2022-08-18T07:06:02.176Z,99863.28
2022-08-18T07:09:25.438Z,99856.66
2022-08-18T07:12:32.895Z,99861.09
2022-08-18T07:15:36.395Z,99868.53
2022-08-18T07:18:39.073Z,99876.06
2022-08-18T07:21:42.210Z,99879.69
2022-08-18T07:24:48.805Z,99884.44
2022-08-18T07:27:55.993Z,99883.44
2022-08-18T07:31:17.244Z,99888.34
2022-08-18T07:34:26.522Z,99894.84
2022-08-18T07:37:33.840Z,99903.81
2022-08-18T07:40:44.235Z,99897.88
2022-08-18T07:44:02.192Z,99899.31
2022-08-18T07:47:11.074Z,99899.47
2022-08-18T07:50:26.856Z,99908.25
2022-08-18T07:53:54.778Z,99906.38
2022-08-18T07:57:07.305Z,99915.50
2022-08-18T08:00:26.734Z,99929.69
2022-08-18T08:03:52.185Z,99930.88
2022-08-18T08:07:23.352Z,99930.78
2022-08-18T08:10:37.450Z,99925.47
2022-08-18T08:13:55.846Z,99928.13
2022-08-18T08:17:07.353Z,99918.28
2022-08-18T08:20:22.167Z,99917.88
2022-08-18T08:23:30.441Z,99917.78
2022-08-18T08:26:45.533Z,99918.09
2022-08-18T08:30:01.977Z,99887.34
2022-08-18T08:33:11.326Z,99903.63
2022-08-18T08:36:19.936Z,99907.81
2022-08-18T08:39:26.869Z,99914.63
2022-08-18T08:42:41.129Z,99910.88
2022-08-18T08:45:50.514Z,99903.19
2022-08-18T08:49:01.145Z,99898.41
2022-08-18T08:52:10.544Z,99898.81
2022-08-18T08:55:18.351Z,99898.66
2022-08-18T08:58:26.467Z,99901.75
2022-08-18T09:01:35.526Z,99896.78
2022-08-18T09:05:07.520Z,99896.19
2022-08-18T09:08:26.692Z,99899.94
2022-08-18T09:11:58.736Z,99899.53
2022-08-18T09:15:23.495Z,99895.91
2022-08-18T09:18:43.560Z,99899.09
2022-08-18T09:21:53.095Z,99893.59
2022-08-18T09:24:56.548Z,99886.06
2022-08-18T09:28:11.808Z,99890.25
2022-08-18T09:31:19.958Z,99892.44
2022-08-18T09:34:51.471Z,99905.75
2022-08-18T09:38:20.363Z,99907.34
2022-08-18T09:41:34.104Z,99909.25
2022-08-18T09:45:02.125Z,99932.03
2022-08-18T09:48:25.507Z,99936.66
2022-08-18T09:51:39.871Z,99934.63
2022-08-18T09:54:52.559Z,99937.66
2022-08-18T09:58:15.360Z,99933.63
2022-08-18T10:01:33.000Z,99935.91
2022-08-18T10:04:48.679Z,99931.75
2022-08-18T10:07:56.127Z,99935.31
2022-08-18T10:11:14.124Z,99950.56
2022-08-18T10:14:35.437Z,99962.16
2022-08-18T10:17:51.827Z,99963.19
2022-08-18T10:21:04.847Z,99966.94
2022-08-18T10:24:36.161Z,99970.84
2022-08-18T10:27:53.443Z,99957.53
2022-08-18T10:34:51.667Z,99952.16
2022-08-18T10:37:55.190Z,99935.50
2022-08-18T10:41:10.181Z,99927.59
2022-08-18T10:44:29.286Z,99928.66
2022-08-18T10:47:33.494Z,99934.78
2022-08-18T10:50:42.700Z,99920.56
2022-08-18T10:53:51.897Z,99909.56
2022-08-18T10:57:06.115Z,99904.84
2022-08-18T11:00:12.388Z,99879.81
2022-08-18T11:03:51.635Z,99867.59
2022-08-18T11:06:58.264Z,99850.31
2022-08-18T11:10:27.816Z,99845.03
2022-08-18T11:13:46.317Z,99844.88
2022-08-18T11:17:00.368Z,99845.81
2022-08-18T11:20:09.733Z,99827.84
2022-08-18T11:23:14.897Z,99823.25
2022-08-18T11:26:19.483Z,99822.94
2022-08-18T11:29:32.264Z,99812.66
2022-08-18T11:32:39.429Z,99798.56
2022-08-18T11:35:48.880Z,99788.03
2022-08-18T11:38:56.143Z,99796.19
2022-08-18T11:42:00.922Z,99810.38
2022-08-18T11:45:11.843Z,99807.09
2022-08-18T11:48:20.844Z,99804.31
2022-08-18T11:51:32.587Z,99806.63
2022-08-18T11:54:50.815Z,99815.06
2022-08-18T11:58:00.292Z,99813.88
2022-08-18T12:01:04.567Z,99811.34
2022-08-18T12:04:23.021Z,99813.50
2022-08-18T12:07:31.940Z,99806.41
2022-08-18T12:10:36.485Z,99802.44
2022-08-18T12:13:39.341Z,99806.91
2022-08-18T12:16:46.442Z,99802.25
2022-08-18T12:19:49.491Z,99796.19
2022-08-18T12:22:57.694Z,99783.31
2022-08-18T12:26:00.347Z,99746.19
2022-08-18T12:29:03.077Z,99775.16
2022-08-18T12:32:08.560Z,99775.00
2022-08-18T12:35:22.357Z,99774.69
2022-08-18T12:38:26.176Z,99766.72
2022-08-18T12:41:32.001Z,99757.72
2022-08-18T12:44:35.110Z,99743.75
2022-08-18T12:47:42.329Z,99753.75
2022-08-18T12:50:54.234Z,99745.09
2022-08-18T12:53:59.487Z,99727.66
2022-08-18T12:57:04.464Z,99725.25
2022-08-18T13:03:37.169Z,99729.28
2022-08-18T13:06:54.095Z,99707.81
2022-08-18T13:10:03.221Z,99703.50
2022-08-18T13:13:05.884Z,99696.91
2022-08-18T13:16:09.481Z,99693.69
2022-08-18T13:19:20.607Z,99697.94
2022-08-18T13:22:32.843Z,99715.59
2022-08-18T13:25:39.459Z,99690.78
2022-08-18T13:28:57.117Z,99701.47
2022-08-18T13:32:00.966Z,99699.16
2022-08-18T13:35:13.311Z,99685.84
2022-08-18T13:38:22.135Z,99686.81
2022-08-18T13:41:33.276Z,99690.00
2022-08-18T13:44:38.041Z,99675.22
2022-08-18T13:47:42.229Z,99680.63
2022-08-18T13:50:52.349Z,99664.63
2022-08-18T13:54:26.536Z,99662.81
2022-08-18T13:57:19.980Z,99657.59
2022-08-18T14:00:30.547Z,99646.22
2022-08-18T14:03:46.902Z,99644.53
2022-08-18T14:06:57.383Z,99645.88
2022-08-18T14:10:03.703Z,99645.53
2022-08-18T14:13:20.507Z,99629.00
2022-08-18T14:16:28.126Z,99634.50
2022-08-18T14:19:48.352Z,99635.66
2022-08-18T14:23:11.859Z,99632.22
2022-08-18T14:26:32.591Z,99637.53
2022-08-18T14:29:46.537Z,99627.84
2022-08-18T14:32:50.581Z,99628.13
2022-08-18T14:36:05.827Z,99632.97
2022-08-18T14:39:11.179Z,99621.25
2022-08-18T14:42:15.820Z,99626.91
2022-08-18T14:45:26.946Z,99619.69
2022-08-18T14:48:36.952Z,99624.44
2022-08-18T14:51:42.561Z,99632.34
2022-08-18T14:54:51.254Z,99628.53
2022-08-18T14:57:54.317Z,99628.28
2022-08-18T15:00:59.196Z,99635.91
2022-08-18T15:04:19.266Z,99631.81
2022-08-18T15:07:23.851Z,99634.19
2022-08-18T15:10:28.375Z,99623.84
2022-08-18T15:13:32.250Z,99621.94
2022-08-18T15:16:39.774Z,99617.53
2022-08-18T15:19:59.011Z,99618.56
2022-08-18T15:23:28.185Z,99625.16
2022-08-18T15:26:32.457Z,99623.56
2022-08-18T15:29:41.516Z,99615.50
2022-08-18T15:32:49.688Z,99611.75
2022-08-18T15:35:53.500Z,99614.81
2022-08-18T15:38:56.757Z,99607.31
2022-08-18T15:42:00.762Z,99606.44
2022-08-18T15:45:11.986Z,99603.34
2022-08-18T15:48:17.609Z,99604.59
2022-08-18T15:51:20.367Z,99608.78
2022-08-18T15:54:23.331Z,99613.34
2022-08-18T15:57:38.935Z,99613.91
2022-08-18T16:00:45.849Z,99623.81
2022-08-18T16:03:49.980Z,99631.78
2022-08-18T16:06:56.297Z,99631.78
2022-08-18T16:09:59.100Z,99625.16
2022-08-18T16:13:04.588Z,99627.81
2022-08-18T16:16:13.172Z,99636.16
2022-08-18T16:19:15.849Z,99632.63
2022-08-18T16:22:21.234Z,99636.28
2022-08-18T16:25:25.263Z,99631.41
2022-08-18T16:28:34.810Z,99639.22
2022-08-18T16:31:38.154Z,99638.47
2022-08-18T16:34:41.867Z,99634.53
2022-08-18T16:37:44.558Z,99643.72
2022-08-18T16:40:47.510Z,99640.06
2022-08-18T16:43:51.544Z,99636.78
2022-08-18T16:46:54.354Z,99640.06
2022-08-18T16:49:58.691Z,99638.34
2022-08-18T16:53:01.901Z,99629.84
2022-08-18T16:56:05.205Z,99634.72
2022-08-18T16:59:32.654Z,99636.25
2022-08-18T17:02:53.255Z,99626.03
2022-08-18T17:06:04.863Z,99627.97
2022-08-18T17:09:10.284Z,99622.81
2022-08-18T17:12:13.131Z,99620.78
2022-08-18T17:15:17.193Z,99621.84
2022-08-18T17:18:20.902Z,99624.31
2022-08-18T17:21:26.892Z,99634.56
2022-08-18T17:24:32.227Z,99630.28
2022-08-18T17:27:37.347Z,99615.09
2022-08-18T17:30:47.450Z,99634.50
2022-08-18T17:33:50.177Z,99628.78
2022-08-18T17:36:54.957Z,99630.19
2022-08-18T17:40:03.524Z,99625.88
2022-08-18T17:43:18.119Z,99627.13
2022-08-18T17:46:27.454Z,99629.38
2022-08-18T17:50:28.031Z,99638.72
2022-08-18T17:53:21.940Z,99636.09
2022-08-18T17:56:35.387Z,99638.53
2022-08-18T17:59:51.865Z,99641.63
2022-08-18T18:02:56.427Z,99642.31
2022-08-18T18:06:03.906Z,99659.06
2022-08-18T18:09:10.785Z,99660.94
2022-08-18T18:12:23.554Z,99666.28
2022-08-18T18:15:33.965Z,99663.50
2022-08-18T18:18:41.836Z,99652.06
2022-08-18T18:21:53.606Z,99660.19
2022-08-18T18:25:07.642Z,99659.97
2022-08-18T18:28:27.776Z,99659.25
2022-08-18T18:31:32.473Z,99648.50
2022-08-18T18:34:39.680Z,99656.63
2022-08-18T18:37:49.285Z,99663.84
2022-08-18T18:40:58.856Z,99675.72
2022-08-18T18:44:09.411Z,99670.69
2022-08-18T18:47:24.652Z,99682.06
2022-08-18T18:50:34.791Z,99675.44
2022-08-18T18:53:51.949Z,99679.03
2022-08-18T18:56:57.413Z,99686.28
2022-08-18T19:00:14.320Z,99680.38
2022-08-18T19:03:24.558Z,99682.75
2022-08-18T19:06:33.592Z,99680.31
2022-08-18T19:09:48.516Z,99675.47
2022-08-18T19:12:58.299Z,99670.03
2022-08-18T19:16:11.867Z,99675.00
2022-08-18T19:19:39.316Z,99675.34
